createdAt,value
2024-03-10T01:29:07.172Z,34.17
2024-03-10T01:31:34.697Z,40.90
2024-03-10T01:34:01.131Z,40.27
2024-03-10T01:36:27.889Z,43.20
2024-03-10T01:38:55.352Z,47.33
2024-03-10T01:41:22.879Z,42.78
2024-03-10T01:43:50.425Z,45.75
2024-03-10T01:46:16.990Z,42.83
2024-03-10T01:48:43.749Z,42.25
2024-03-10T01:51:11.600Z,44.42
2024-03-10T01:53:38.620Z,41.92
2024-03-10T01:56:07.661Z,43.58
2024-03-10T01:58:34.505Z,40.90
2024-03-10T02:01:00.953Z,42.25
2024-03-10T02:03:28.932Z,42.75
2024-03-10T02:05:56.648Z,42.30
2024-03-10T02:08:23.155Z,41.72
2024-03-10T02:10:50.810Z,46.35
2024-03-10T02:13:17.401Z,42.35
2024-03-10T02:15:45.317Z,45.78
2024-03-10T02:18:11.824Z,41.53
2024-03-10T02:20:39.358Z,46.97
2024-03-10T02:23:05.836Z,43.15
2024-03-10T02:25:41.738Z,48.35
2024-03-10T02:28:08.260Z,48.50
2024-03-10T02:30:34.637Z,44.13
2024-03-10T02:33:02.198Z,47.97
2024-03-10T02:35:28.953Z,39.38
2024-03-10T02:37:56.481Z,48.10
2024-03-10T02:40:22.929Z,42.80
2024-03-10T02:42:49.388Z,43.53
2024-03-10T02:45:16.848Z,46.10
2024-03-10T02:47:43.329Z,48.22
2024-03-10T02:50:10.058Z,44.28
2024-03-10T02:52:37.593Z,42.22
2024-03-10T02:55:05.194Z,43.80
2024-03-10T02:57:31.667Z,42.13
2024-03-10T03:00:00.172Z,44.35
2024-03-10T03:02:26.727Z,43.13
2024-03-10T03:04:53.268Z,42.72
2024-03-10T03:07:20.917Z,44.05
2024-03-10T03:09:47.564Z,44.00
2024-03-10T03:12:14.319Z,43.15
2024-03-10T03:14:42.177Z,48.13
2024-03-10T03:17:08.693Z,48.22
2024-03-10T03:19:35.318Z,45.63
2024-03-10T03:22:02.854Z,42.35
2024-03-10T03:24:30.353Z,41.20
2024-03-10T03:26:56.825Z,42.00
2024-03-10T03:29:23.357Z,38.97
2024-03-10T03:31:51.078Z,43.75
2024-03-10T03:34:17.846Z,42.57
2024-03-10T03:36:45.370Z,46.67
2024-03-10T03:39:11.862Z,43.72
2024-03-10T03:41:38.507Z,43.60
2024-03-10T03:44:06.225Z,46.05
2024-03-10T03:46:32.701Z,45.25
2024-03-10T03:49:00.204Z,44.10
2024-03-10T03:51:26.640Z,41.97
2024-03-10T03:53:54.069Z,46.17
2024-03-10T03:56:20.602Z,46.22
2024-03-10T03:58:48.268Z,45.97
2024-03-10T04:01:14.721Z,47.63
2024-03-10T04:03:41.134Z,47.92
2024-03-10T04:06:08.634Z,48.10
2024-03-10T04:08:35.024Z,53.88
2024-03-10T04:11:01.621Z,45.45
2024-03-10T04:13:29.171Z,46.17
2024-03-10T04:15:56.601Z,43.40
2024-03-10T04:18:24.109Z,46.45
2024-03-10T04:20:50.552Z,41.20
2024-03-10T04:23:18.137Z,48.85
2024-03-10T04:25:44.675Z,47.85
2024-03-10T04:28:13.276Z,43.67
2024-03-10T04:30:40.727Z,44.22
2024-03-10T04:33:07.203Z,48.15
2024-03-10T04:35:34.746Z,49.65
2024-03-10T04:38:01.277Z,45.60
2024-03-10T04:40:27.741Z,50.25
2024-03-10T04:42:56.321Z,49.75
2024-03-10T04:45:22.990Z,50.22
2024-03-10T04:47:49.439Z,49.20
2024-03-10T04:50:17.086Z,52.45
2024-03-10T04:52:43.801Z,51.27
2024-03-10T04:55:10.265Z,56.37
2024-03-10T04:57:37.724Z,58.83
2024-03-10T05:00:04.375Z,46.87
2024-03-10T05:02:31.929Z,49.75
2024-03-10T05:04:58.394Z,51.03
2024-03-10T05:07:25.851Z,49.08
2024-03-10T05:09:52.275Z,48.95
2024-03-10T05:12:18.803Z,49.67
2024-03-10T05:14:46.373Z,49.55
2024-03-10T05:17:14.046Z,51.28
2024-03-10T05:19:44.447Z,52.05
2024-03-10T05:22:10.857Z,49.72
2024-03-10T05:24:41.641Z,52.08
2024-03-10T05:27:08.310Z,52.23
2024-03-10T05:29:34.811Z,50.35
2024-03-10T05:32:02.344Z,53.38
2024-03-10T05:34:28.763Z,55.03
2024-03-10T05:36:55.207Z,50.90
2024-03-10T05:39:22.651Z,53.38
2024-03-10T05:41:49.061Z,57.17
2024-03-10T05:44:15.575Z,54.72
2024-03-10T05:46:43.057Z,52.92
2024-03-10T05:49:09.425Z,54.58
2024-03-10T05:51:36.909Z,54.05
2024-03-10T05:54:03.403Z,53.63
2024-03-10T05:56:30.908Z,54.60
2024-03-10T05:58:58.445Z,56.22
2024-03-10T06:01:25.082Z,55.28
2024-03-10T06:03:51.678Z,54.30
2024-03-10T06:06:20.121Z,54.72
2024-03-10T06:08:47.626Z,51.90
2024-03-10T06:11:14.374Z,55.42
2024-03-10T06:13:42.078Z,55.75
2024-03-10T06:16:08.488Z,56.80
2024-03-10T06:18:34.994Z,52.33
2024-03-10T06:21:02.658Z,53.83
2024-03-10T06:23:29.156Z,56.05
2024-03-10T06:25:55.692Z,57.25
2024-03-10T06:28:23.168Z,55.95
2024-03-10T06:30:50.630Z,56.58
2024-03-10T06:33:17.048Z,56.38
2024-03-10T06:35:44.605Z,57.28
2024-03-10T06:38:11.056Z,58.43
2024-03-10T06:40:38.901Z,56.88
2024-03-10T06:43:05.326Z,57.60
2024-03-10T06:45:31.812Z,57.72
2024-03-10T06:47:59.310Z,52.50
2024-03-10T06:50:25.833Z,52.80
2024-03-10T06:52:52.303Z,52.83
2024-03-10T06:55:19.802Z,54.42
2024-03-10T06:57:46.290Z,57.75
2024-03-10T07:00:13.000Z,52.38
2024-03-10T07:02:44.233Z,54.03
2024-03-10T07:05:10.917Z,51.00
2024-03-10T07:07:37.390Z,57.03
2024-03-10T07:10:04.957Z,56.87
2024-03-10T07:12:31.735Z,54.63
2024-03-10T07:14:59.212Z,56.83
2024-03-10T07:17:25.740Z,50.85
2024-03-10T07:19:52.221Z,53.72
2024-03-10T07:22:19.763Z,50.90
2024-03-10T07:24:48.283Z,53.75
2024-03-10T07:27:15.741Z,49.63
2024-03-10T07:29:42.300Z,49.50
2024-03-10T07:32:08.765Z,53.28
2024-03-10T07:34:37.290Z,46.70
2024-03-10T07:37:03.847Z,46.60
2024-03-10T07:39:30.289Z,51.85
2024-03-10T07:41:57.734Z,50.80
2024-03-10T07:44:25.230Z,44.38
2024-03-10T07:46:51.938Z,45.15
2024-03-10T07:49:18.342Z,48.25
2024-03-10T07:51:45.796Z,48.25
2024-03-10T07:54:12.212Z,47.85
2024-03-10T07:56:38.706Z,54.03
2024-03-10T07:59:06.249Z,52.17
2024-03-10T08:01:32.726Z,49.45
2024-03-10T08:04:01.215Z,47.97
2024-03-10T08:06:27.651Z,49.35
2024-03-10T08:08:54.081Z,50.92
2024-03-10T08:11:21.639Z,50.25
2024-03-10T08:13:48.124Z,51.17
2024-03-10T08:16:15.695Z,50.38
2024-03-10T08:18:42.637Z,55.88
2024-03-10T08:21:10.158Z,52.35
2024-03-10T08:23:36.647Z,49.88
2024-03-10T08:26:03.144Z,51.17
2024-03-10T08:28:30.666Z,54.47
2024-03-10T08:30:57.127Z,47.92
2024-03-10T08:33:24.714Z,48.78
2024-03-10T08:35:51.225Z,50.60
2024-03-10T08:38:18.836Z,53.58
2024-03-10T08:40:45.285Z,50.80
2024-03-10T08:43:12.766Z,55.73
2024-03-10T08:45:39.147Z,55.50
2024-03-10T08:48:07.260Z,54.03
2024-03-10T08:50:34.943Z,50.20
2024-03-10T08:53:01.538Z,52.87
2024-03-10T08:55:27.982Z,52.17
2024-03-10T08:57:55.470Z,47.43
2024-03-10T09:00:21.915Z,46.17
2024-03-10T09:02:49.500Z,44.23
2024-03-10T09:05:16.244Z,38.28
2024-03-10T09:07:43.358Z,41.88
2024-03-10T09:10:11.355Z,38.63
2024-03-10T09:12:37.871Z,34.90
2024-03-10T09:15:04.607Z,34.25
2024-03-10T09:17:32.197Z,36.57
2024-03-10T09:19:59.828Z,35.83
2024-03-10T09:22:26.404Z,42.15
2024-03-10T09:24:53.938Z,38.33
2024-03-10T09:27:20.787Z,35.88
2024-03-10T09:29:47.653Z,36.83
2024-03-10T09:32:16.164Z,37.15
2024-03-10T09:34:43.047Z,38.13
2024-03-10T09:37:11.100Z,39.63
2024-03-10T09:39:37.508Z,37.20
2024-03-10T09:42:05.266Z,31.33
2024-03-10T09:44:32.526Z,36.53
2024-03-10T09:46:59.289Z,32.90
2024-03-10T09:49:26.848Z,33.83
2024-03-10T09:51:54.453Z,38.43
2024-03-10T09:54:22.008Z,34.08
2024-03-10T09:56:48.772Z,37.28
2024-03-10T09:59:36.591Z,37.60
2024-03-10T10:02:03.876Z,38.63
2024-03-10T10:04:36.581Z,40.83
2024-03-10T10:07:04.064Z,39.03
2024-03-10T10:09:30.527Z,38.83
2024-03-10T10:11:58.243Z,37.23
2024-03-10T10:14:24.964Z,35.90
2024-03-10T10:16:55.247Z,34.90
2024-03-10T10:19:22.835Z,37.67
2024-03-10T10:21:49.354Z,34.33
2024-03-10T10:24:17.018Z,32.50
2024-03-10T10:26:43.572Z,32.58
2024-03-10T10:29:11.774Z,33.13
2024-03-10T10:31:38.636Z,30.13
2024-03-10T10:34:10.804Z,31.53
2024-03-10T10:36:38.301Z,33.72
2024-03-10T10:39:08.804Z,32.92
2024-03-10T10:41:37.142Z,31.83
2024-03-10T10:44:03.669Z,33.42
2024-03-10T10:46:31.391Z,31.02
2024-03-10T10:48:57.903Z,28.43
2024-03-10T10:51:26.476Z,29.85
2024-03-10T10:53:52.962Z,29.90
2024-03-10T10:56:20.498Z,30.10
2024-03-10T10:58:49.846Z,30.48
2024-03-10T11:01:17.480Z,36.42
2024-03-10T11:03:43.929Z,28.77
2024-03-10T11:06:14.165Z,28.55
2024-03-10T11:08:40.762Z,30.10
2024-03-10T11:11:07.445Z,28.83
2024-03-10T11:13:35.350Z,25.63
2024-03-10T11:16:05.691Z,27.17
2024-03-10T11:18:33.732Z,26.93
2024-03-10T11:21:00.233Z,28.17
2024-03-10T11:23:43.587Z,27.27
2024-03-10T11:26:11.517Z,29.55
2024-03-10T11:28:57.068Z,24.03
2024-03-10T11:31:23.447Z,26.47
2024-03-10T11:33:51.651Z,28.63
2024-03-10T11:36:18.596Z,25.50
2024-03-10T11:38:45.335Z,23.25
2024-03-10T11:41:12.968Z,24.23
2024-03-10T11:43:39.836Z,25.00
2024-03-10T11:46:16.473Z,22.88
2024-03-10T11:48:42.855Z,23.38
2024-03-10T11:51:09.292Z,20.45
2024-03-10T11:53:37.501Z,22.38
2024-03-10T11:56:05.145Z,22.70
2024-03-10T11:58:31.609Z,21.10
2024-03-10T12:00:59.148Z,19.88
2024-03-10T12:03:25.601Z,21.00
2024-03-10T12:05:52.051Z,17.70
2024-03-10T12:08:19.667Z,21.40
2024-03-10T12:10:46.089Z,19.40
2024-03-10T12:13:18.223Z,18.25
2024-03-10T12:15:50.932Z,21.42
2024-03-10T12:18:17.386Z,19.92
2024-03-10T12:20:44.063Z,18.70
2024-03-10T12:23:11.522Z,17.92
2024-03-10T12:25:42.551Z,15.82
2024-03-10T12:28:12.546Z,16.17
2024-03-10T12:30:38.930Z,17.50
2024-03-10T12:33:07.695Z,16.38
2024-03-10T12:35:34.265Z,16.85
2024-03-10T12:38:02.102Z,13.40
2024-03-10T12:40:28.688Z,15.75
2024-03-10T12:42:55.089Z,11.68
2024-03-10T12:45:22.635Z,16.00
2024-03-10T12:47:49.286Z,17.23
2024-03-10T12:50:15.935Z,12.60
2024-03-10T12:52:43.566Z,11.98
2024-03-10T12:55:10.203Z,14.67
2024-03-10T12:57:37.029Z,15.57
2024-03-10T13:00:08.091Z,17.17
2024-03-10T13:02:34.639Z,13.13
2024-03-10T13:05:01.189Z,14.05
2024-03-10T13:07:28.685Z,20.08
2024-03-10T13:09:55.155Z,13.20
2024-03-10T13:12:22.676Z,13.77
2024-03-10T13:14:49.219Z,14.13
2024-03-10T13:17:15.719Z,14.32
2024-03-10T13:19:43.160Z,15.82
2024-03-10T13:22:10.609Z,21.83
2024-03-10T13:24:37.046Z,17.88
2024-03-10T13:27:03.577Z,20.20
2024-03-10T13:29:31.133Z,18.57
2024-03-10T13:31:57.593Z,19.65
2024-03-10T13:34:24.019Z,19.10
2024-03-10T13:36:51.430Z,19.55
2024-03-10T13:39:17.846Z,22.83
2024-03-10T13:41:45.332Z,22.07
2024-03-10T13:44:11.746Z,22.15
2024-03-10T13:46:39.310Z,21.08
2024-03-10T13:49:05.705Z,20.75
2024-03-10T13:51:33.254Z,21.98
2024-03-10T13:53:59.796Z,19.42
2024-03-10T13:56:26.250Z,21.77
2024-03-10T13:58:53.742Z,22.58
2024-03-10T14:01:20.237Z,20.98
2024-03-10T14:03:47.713Z,24.80
2024-03-10T14:06:15.200Z,23.55
2024-03-10T14:08:41.645Z,24.50
2024-03-10T14:11:08.212Z,20.77
2024-03-10T14:13:35.782Z,21.27
2024-03-10T14:16:02.728Z,20.88
2024-03-10T14:18:30.273Z,25.05
2024-03-10T14:20:57.776Z,24.73
2024-03-10T14:23:24.230Z,19.88
2024-03-10T14:25:51.810Z,19.23
2024-03-10T14:28:18.272Z,17.10
2024-03-10T14:30:44.704Z,24.00
2024-03-10T14:33:12.213Z,21.13
2024-03-10T14:35:39.763Z,20.50
2024-03-10T14:38:07.343Z,20.45
2024-03-10T14:40:33.846Z,21.08
2024-03-10T14:43:01.627Z,20.77
2024-03-10T14:45:28.058Z,22.55
2024-03-10T14:47:54.536Z,22.08
2024-03-10T14:50:26.164Z,25.75
2024-03-10T14:52:53.367Z,23.75
2024-03-10T14:55:20.907Z,25.17
2024-03-10T14:57:47.618Z,24.93
2024-03-10T15:00:14.735Z,25.90
2024-03-10T15:02:43.930Z,22.40
2024-03-10T15:05:10.613Z,26.67
2024-03-10T15:07:37.140Z,22.17
2024-03-10T15:10:04.876Z,25.25
2024-03-10T15:12:32.813Z,27.27
2024-03-10T15:15:01.499Z,26.30
2024-03-10T15:17:28.020Z,24.80
2024-03-10T15:19:54.546Z,27.02
2024-03-10T15:22:22.144Z,29.58
2024-03-10T15:24:49.619Z,25.75
2024-03-10T15:27:16.029Z,25.45
2024-03-10T15:29:43.543Z,24.52
2024-03-10T15:32:09.975Z,26.67
2024-03-10T15:34:36.383Z,21.88
2024-03-10T15:37:03.889Z,23.02
2024-03-10T15:39:30.350Z,24.30
2024-03-10T15:41:58.041Z,25.02
2024-03-10T15:44:24.699Z,24.02
2024-03-10T15:46:52.754Z,22.70
2024-03-10T15:49:19.714Z,20.17
2024-03-10T15:51:47.288Z,26.77
2024-03-10T15:54:13.723Z,20.75
2024-03-10T15:56:40.214Z,22.50
2024-03-10T15:59:07.707Z,24.40
2024-03-10T16:01:35.275Z,23.55
2024-03-10T16:04:05.328Z,20.25
2024-03-10T16:06:31.751Z,22.03
2024-03-10T16:09:01.238Z,23.00
2024-03-10T16:11:27.839Z,23.10
2024-03-10T16:13:57.205Z,22.13
2024-03-10T16:16:25.176Z,25.42
2024-03-10T16:18:51.907Z,22.48
2024-03-10T16:21:21.175Z,22.83
2024-03-10T16:23:48.655Z,27.92
2024-03-10T16:26:17.649Z,21.23
2024-03-10T16:28:45.476Z,24.13
2024-03-10T16:31:13.632Z,27.10
2024-03-10T16:33:40.630Z,22.35
2024-03-10T16:36:07.264Z,26.20
2024-03-10T16:38:34.856Z,24.55
2024-03-10T16:41:02.410Z,25.02
2024-03-10T16:43:29.878Z,32.25
2024-03-10T16:45:56.504Z,27.13
2024-03-10T16:48:23.129Z,22.38
2024-03-10T16:50:51.647Z,25.10
2024-03-10T16:53:18.228Z,26.43
2024-03-10T16:55:49.054Z,27.17
2024-03-10T16:58:17.120Z,26.13
2024-03-10T17:00:44.121Z,26.08
2024-03-10T17:03:11.621Z,29.30
2024-03-10T17:05:38.329Z,30.10
2024-03-10T17:08:05.105Z,31.80
2024-03-10T17:10:32.813Z,30.45
2024-03-10T17:12:59.415Z,33.13
2024-03-10T17:15:26.100Z,36.53
2024-03-10T17:17:53.920Z,33.53
2024-03-10T17:20:20.937Z,34.90
2024-03-10T17:22:47.440Z,45.30
2024-03-10T17:25:16.247Z,39.50
2024-03-10T17:27:42.647Z,36.83
2024-03-10T17:30:10.246Z,38.70
2024-03-10T17:32:37.233Z,36.38
2024-03-10T17:35:05.398Z,36.03
2024-03-10T17:37:32.997Z,42.30
2024-03-10T17:40:00.640Z,39.13
2024-03-10T17:42:27.154Z,36.03
2024-03-10T17:44:54.601Z,37.58
2024-03-10T17:47:21.057Z,37.40
2024-03-10T17:49:48.638Z,39.92
2024-03-10T17:52:15.082Z,38.58
2024-03-10T17:54:41.510Z,41.00
2024-03-10T17:57:10.410Z,41.13
2024-03-10T17:59:38.756Z,36.53
2024-03-10T18:02:06.257Z,40.42
2024-03-10T18:04:32.733Z,39.53
2024-03-10T18:06:59.127Z,36.03
2024-03-10T18:09:26.685Z,43.07
2024-03-10T18:11:53.314Z,42.17
2024-03-10T18:14:19.736Z,41.97
2024-03-10T18:16:47.217Z,42.83
2024-03-10T18:19:13.644Z,43.10
2024-03-10T19:37:42.098Z,29.13
2024-03-10T19:40:08.872Z,34.33
2024-03-10T19:42:36.305Z,33.53
2024-03-10T19:45:03.791Z,34.33
2024-03-10T19:47:30.354Z,34.58
2024-03-10T19:49:56.770Z,33.35
2024-03-10T19:52:24.237Z,31.25
2024-03-10T19:54:51.728Z,29.73
2024-03-10T19:57:18.153Z,31.70
2024-03-10T19:59:44.556Z,27.02
2024-03-10T20:02:12.035Z,27.58
2024-03-10T20:04:38.465Z,30.23
2024-03-10T20:07:05.940Z,26.67
2024-03-10T20:09:32.355Z,28.80
2024-03-10T20:11:59.935Z,24.38
2024-03-10T20:14:26.444Z,26.65
2024-03-10T20:16:53.963Z,26.67
2024-03-10T20:19:20.388Z,26.58
2024-03-10T20:21:46.808Z,26.58
2024-03-10T20:24:14.277Z,25.85
2024-03-10T20:26:40.684Z,25.52
2024-03-10T20:29:07.186Z,23.25
2024-03-10T20:31:34.696Z,22.88
2024-03-10T20:34:01.118Z,24.30
2024-03-10T20:36:27.550Z,24.75
2024-03-10T20:38:55.168Z,24.85
2024-03-10T20:41:21.600Z,24.88
2024-03-10T20:43:48.043Z,26.20
2024-03-10T20:46:25.675Z,23.63
2024-03-10T20:48:59.980Z,23.17
2024-03-10T20:51:27.477Z,23.97
2024-03-10T20:53:54.947Z,22.40
2024-03-10T20:56:21.437Z,23.63
2024-03-10T20:58:48.898Z,24.48
2024-03-10T21:01:15.327Z,24.83
2024-03-10T21:03:41.769Z,25.27
2024-03-10T21:06:09.524Z,27.98
2024-03-10T21:08:36.345Z,23.35
2024-03-10T21:11:02.900Z,33.63
2024-03-10T21:13:30.454Z,27.73
2024-03-10T21:15:56.838Z,26.75
2024-03-10T21:18:24.326Z,24.70
2024-03-10T21:20:50.968Z,23.73
2024-03-10T21:23:18.558Z,25.20
2024-03-10T21:25:45.000Z,21.92
2024-03-10T21:28:11.415Z,28.48
2024-03-10T21:30:39.271Z,24.70
2024-03-10T21:33:06.082Z,22.38
2024-03-10T21:35:32.634Z,27.95
2024-03-10T21:38:02.493Z,26.67
2024-03-10T21:40:29.131Z,24.58
2024-03-10T21:42:56.624Z,23.35
2024-03-10T21:45:23.335Z,23.92
2024-03-10T21:47:49.800Z,25.13
2024-03-10T21:50:17.432Z,23.20
2024-03-10T21:52:44.508Z,23.20
2024-03-10T21:55:10.947Z,24.67
2024-03-10T21:57:38.438Z,25.27
2024-03-10T22:00:05.365Z,23.13
2024-03-10T22:02:31.934Z,25.13
2024-03-10T22:04:59.394Z,27.05
2024-03-10T22:07:26.919Z,23.58
2024-03-10T22:09:53.348Z,27.75
2024-03-10T22:12:20.913Z,27.20
2024-03-10T22:14:47.397Z,29.65
2024-03-10T22:17:14.297Z,27.67
2024-03-10T22:19:41.821Z,29.17
2024-03-10T22:22:09.281Z,32.08
2024-03-10T22:24:36.057Z,29.13
2024-03-10T22:27:02.478Z,29.27
2024-03-10T22:29:30.098Z,28.63
2024-03-10T22:31:56.927Z,33.30
2024-03-10T22:34:24.396Z,31.33
2024-03-10T22:36:51.841Z,32.55
2024-03-10T22:39:18.305Z,34.00
2024-03-10T22:41:46.075Z,37.30
2024-03-10T22:44:13.612Z,36.35
2024-03-10T22:46:40.107Z,47.45
2024-03-10T22:49:08.239Z,44.08
2024-03-10T22:51:35.870Z,51.17
2024-03-10T22:54:02.340Z,48.55
2024-03-10T22:56:29.931Z,46.20
2024-03-10T22:58:56.336Z,52.22
2024-03-10T23:01:22.955Z,54.33
2024-03-10T23:03:50.505Z,57.40
2024-03-10T23:06:19.902Z,52.67
2024-03-10T23:08:48.741Z,47.63
2024-03-10T23:11:15.384Z,53.00
2024-03-10T23:13:41.819Z,51.97
2024-03-10T23:16:09.947Z,51.30
2024-03-10T23:18:36.560Z,50.45
2024-03-10T23:21:04.088Z,51.53
2024-03-10T23:23:30.596Z,50.67
2024-03-10T23:25:57.178Z,56.47
2024-03-10T23:28:24.654Z,52.07
2024-03-10T23:30:51.213Z,47.03
2024-03-10T23:33:18.878Z,53.38
2024-03-10T23:35:46.453Z,55.53
2024-03-10T23:38:14.145Z,46.25
2024-03-10T23:40:41.634Z,53.85
2024-03-10T23:43:08.042Z,51.63
2024-03-10T23:45:35.512Z,47.35
2024-03-10T23:48:02.175Z,45.60
2024-03-10T23:50:29.190Z,46.95
2024-03-10T23:52:58.201Z,50.08
2024-03-10T23:55:36.160Z,46.33
2024-03-10T23:58:02.587Z,46.33
